Time;durP1;ratioP1;P1;durP2;ratioP2;P2;SDS_P1;SDS_P2;PMS_P1;PMS_P2;Temp;Humidity;BMP_temperature;BMP_pressure;BME280_temperature;BME280_humidity;BME280_pressure;Samples;Min_cycle;Max_cycle;Signal;HPM_P1;HPM_P2
2022/10/12 00:01:46;;;;;;;5.67;3.20;;;;;;;2.72;100.00;101863.88;5044837;28;20245;-70
2022/10/12 00:04:13;;;;;;;6.43;2.90;;;;;;;2.69;100.00;101855.22;5055204;28;20221;-71
2022/10/12 00:06:39;;;;;;;3.83;2.83;;;;;;;2.67;100.00;101860.31;5055639;28;20218;-70
2022/10/12 00:09:07;;;;;;;4.67;3.33;;;;;;;2.62;100.00;101859.31;5046152;28;20203;-71
2022/10/12 00:11:33;;;;;;;5.83;2.80;;;;;;;2.69;100.00;101866.41;5061270;28;20221;-71
2022/10/12 00:14:00;;;;;;;3.73;2.67;;;;;;;2.57;100.00;101868.63;5049491;28;20652;-71
2022/10/12 00:16:30;;;;;;;5.33;2.87;;;;;;;2.55;100.00;101860.00;5051445;28;20196;-70
2022/10/12 00:18:57;;;;;;;5.13;3.13;;;;;;;2.59;100.00;101869.56;5053545;28;20217;-71
2022/10/12 00:21:25;;;;;;;3.53;2.63;;;;;;;2.62;100.00;101867.94;5031683;28;20220;-70
2022/10/12 00:23:52;;;;;;;3.10;2.27;;;;;;;2.58;100.00;101865.22;5032278;28;20199;-70
2022/10/12 00:26:22;;;;;;;4.67;2.70;;;;;;;2.58;100.00;101865.22;5053854;28;20218;-70
2022/10/12 00:28:49;;;;;;;4.67;2.60;;;;;;;2.57;100.00;101872.09;5020362;28;20208;-70
2022/10/12 00:31:18;;;;;;;3.90;2.50;;;;;;;2.59;100.00;101869.56;5058629;28;20218;-71
2022/10/12 00:33:45;;;;;;;5.67;3.10;;;;;;;2.53;100.00;101871.97;5049836;28;20217;-71
2022/10/12 00:36:17;;;;;;;3.67;2.57;;;;;;;2.56;100.00;101874.63;5046114;28;20234;-71
2022/10/12 00:38:44;;;;;;;3.10;2.17;;;;;;;2.53;100.00;101882.25;5057988;28;20203;-71
2022/10/12 00:41:12;;;;;;;4.33;2.83;;;;;;;2.51;100.00;101881.34;5051849;28;20214;-70
2022/10/12 00:43:42;;;;;;;4.03;2.87;;;;;;;2.38;100.00;101880.16;5038097;28;20286;-71
2022/10/12 00:46:16;;;;;;;4.60;2.63;;;;;;;2.39;100.00;101885.34;5034620;28;20215;-70
2022/10/12 00:48:45;;;;;;;4.20;2.33;;;;;;;2.38;100.00;101888.72;5039830;28;20203;-70
2022/10/12 00:51:11;;;;;;;6.27;2.90;;;;;;;2.37;100.00;101886.13;5061465;28;20214;-71
2022/10/12 00:53:42;;;;;;;3.50;2.43;;;;;;;2.38;100.00;101877.56;5053312;28;20198;-71
2022/10/12 00:56:13;;;;;;;3.23;2.67;;;;;;;2.28;100.00;101882.44;5051841;28;20192;-69
2022/10/12 00:58:41;;;;;;;2.87;2.43;;;;;;;2.34;100.00;101884.34;5043308;28;20199;-70
2022/10/12 01:01:07;;;;;;;9.37;2.57;;;;;;;2.21;100.00;101890.81;5045861;28;20230;-69
2022/10/12 01:03:35;;;;;;;4.57;2.90;;;;;;;2.23;100.00;101894.34;5052692;28;20199;-71
2022/10/12 01:06:02;;;;;;;5.37;2.60;;;;;;;2.35;100.00;101895.50;5043114;28;20215;-71
2022/10/12 01:08:30;;;;;;;3.97;2.50;;;;;;;2.31;100.00;101898.84;5053831;28;20803;-70
2022/10/12 01:10:57;;;;;;;3.30;2.50;;;;;;;2.25;100.00;101892.69;5060371;28;20226;-70
2022/10/12 01:13:24;;;;;;;4.17;2.70;;;;;;;2.02;100.00;101892.03;5053706;28;20595;-71
2022/10/12 01:15:57;;;;;;;4.37;2.60;;;;;;;2.15;100.00;101898.38;5041321;28;20210;-68
2022/10/12 01:18:31;;;;;;;5.83;2.90;;;;;;;2.19;100.00;101895.06;5053494;28;20192;-71
2022/10/12 01:21:07;;;;;;;4.40;2.40;;;;;;;2.23;100.00;101894.34;5053168;28;20231;-71
2022/10/12 01:24:05;;;;;;;2.80;2.20;;;;;;;2.13;100.00;101888.84;5036288;28;20289;-70
2022/10/12 01:27:08;;;;;;;3.37;2.30;;;;;;;2.21;100.00;101901.13;5051690;28;20214;-70
2022/10/12 01:29:51;;;;;;;5.50;2.43;;;;;;;2.07;100.00;101900.72;5046949;28;20632;-71
2022/10/12 01:32:22;;;;;;;3.57;2.47;;;;;;;2.23;100.00;101899.50;5039963;28;20448;-71
2022/10/12 01:34:56;;;;;;;4.63;2.67;;;;;;;2.13;100.00;101894.00;5051396;28;20207;-71
2022/10/12 01:37:31;;;;;;;4.57;2.53;;;;;;;2.13;100.00;101896.56;5046277;28;20580;-70
2022/10/12 01:40:03;;;;;;;4.47;2.10;;;;;;;2.21;100.00;101897.69;5053035;28;20209;-69
2022/10/12 01:42:32;;;;;;;3.83;2.50;;;;;;;2.10;100.00;101899.09;5050679;28;20217;-70
2022/10/12 01:45:04;;;;;;;4.20;2.60;;;;;;;1.90;100.00;101901.94;5050410;28;20214;-71
2022/10/12 01:47:32;;;;;;;4.07;2.30;;;;;;;1.84;100.00;101891.47;5053980;28;20219;-70
2022/10/12 01:50:00;;;;;;;4.03;2.57;;;;;;;1.92;100.00;101896.81;5050039;28;20204;-70
2022/10/12 01:52:31;;;;;;;3.83;2.40;;;;;;;1.92;100.00;101884.84;5056348;28;20225;-70
2022/10/12 01:55:12;;;;;;;5.57;2.60;;;;;;;2.02;100.00;101891.13;5056731;28;20206;-69
2022/10/12 01:57:50;;;;;;;4.30;2.57;;;;;;;2.07;100.00;101885.28;5050854;28;20201;-70
2022/10/12 02:00:19;;;;;;;3.63;2.63;;;;;;;2.06;100.00;101880.97;5055428;28;20201;-70
2022/10/12 02:02:57;;;;;;;3.97;2.33;;;;;;;2.06;100.00;101883.56;5046192;28;20219;-71
2022/10/12 02:05:32;;;;;;;3.50;2.30;;;;;;;2.03;100.00;101877.44;5055039;28;20206;-70
2022/10/12 02:08:06;;;;;;;3.60;2.33;;;;;;;1.98;100.00;101884.16;5053904;28;20310;-70
2022/10/12 02:10:38;;;;;;;3.87;2.70;;;;;;;1.94;100.00;101872.03;5044641;28;20202;-70
2022/10/12 02:13:08;;;;;;;3.37;2.13;;;;;;;1.82;100.00;101877.69;5038466;28;20195;-69
2022/10/12 02:15:38;;;;;;;5.57;2.80;;;;;;;1.88;100.00;101883.91;5046747;28;20204;-71
2022/10/12 02:18:06;;;;;;;4.10;2.33;;;;;;;1.85;100.00;101882.94;5050762;28;20195;-70
2022/10/12 02:20:35;;;;;;;5.30;2.90;;;;;;;1.91;100.00;101879.66;5044616;28;20200;-70
2022/10/12 02:23:02;;;;;;;4.20;2.53;;;;;;;1.89;100.00;101884.75;5059776;22;20726;-70
2022/10/12 02:25:30;;;;;;;2.60;2.23;;;;;;;1.90;100.00;101881.38;5039974;28;20754;-70
2022/10/12 02:28:13;;;;;;;3.97;2.70;;;;;;;1.93;100.00;101885.72;5039708;28;20223;-70
2022/10/12 02:30:47;;;;;;;4.83;2.87;;;;;;;1.94;100.00;101888.34;5039183;28;20687;-70
2022/10/12 02:33:22;;;;;;;3.17;2.63;;;;;;;1.87;100.00;101886.41;5044875;28;20218;-70
2022/10/12 02:35:54;;;;;;;4.63;2.63;;;;;;;1.85;100.00;101882.94;5085388;22;20235;-73
2022/10/12 02:38:28;;;;;;;10.00;2.73;;;;;;;1.90;100.00;101881.38;5083565;28;20247;-73
2022/10/12 02:40:59;;;;;;;3.93;2.70;;;;;;;1.69;100.00;101873.88;5099983;28;20530;-73
2022/10/12 02:43:34;;;;;;;5.83;2.87;;;;;;;1.57;100.00;101876.94;5098444;28;20196;-74
2022/10/12 02:46:04;;;;;;;2.87;2.40;;;;;;;1.66;100.00;101872.06;5098043;28;20214;-74
2022/10/12 02:48:31;;;;;;;3.70;2.70;;;;;;;1.64;100.00;101876.31;5101896;28;20190;-74
2022/10/12 02:50:58;;;;;;;2.93;2.17;;;;;;;1.64;100.00;101866.03;5099946;28;20257;-73
2022/10/12 02:53:29;;;;;;;3.97;2.37;;;;;;;1.65;100.00;101872.94;5095074;28;20213;-74
2022/10/12 02:56:01;;;;;;;5.23;2.43;;;;;;;1.52;100.00;101871.66;5095243;28;20217;-72
2022/10/12 02:58:28;;;;;;;4.63;2.87;;;;;;;1.28;100.00;101878.59;5100805;28;20379;-72
2022/10/12 03:00:54;;;;;;;2.23;2.03;;;;;;;1.38;100.00;101874.63;5082395;28;20685;-74
2022/10/12 03:03:22;;;;;;;4.50;2.83;;;;;;;1.29;100.00;101878.66;5100392;28;20197;-74
2022/10/12 03:05:48;;;;;;;3.77;2.30;;;;;;;1.41;100.00;101874.75;5101622;28;20573;-72
2022/10/12 03:08:15;;;;;;;6.90;2.40;;;;;;;1.44;100.00;101885.97;5098181;28;20279;-74
2022/10/12 03:10:41;;;;;;;2.87;2.50;;;;;;;1.40;100.00;101876.41;5105070;28;20216;-74
2022/10/12 03:13:07;;;;;;;2.70;2.07;;;;;;;1.44;100.00;101880.84;5103647;28;20293;-74
2022/10/12 03:15:34;;;;;;;2.60;2.20;;;;;;;1.49;100.00;101870.69;5100213;28;20217;-74
2022/10/12 03:18:00;;;;;;;3.53;1.90;;;;;;;1.54;100.00;101876.84;5099673;28;20208;-73
2022/10/12 03:20:30;;;;;;;2.90;2.00;;;;;;;1.60;100.00;101877.03;5098677;28;20221;-73
2022/10/12 03:22:56;;;;;;;3.57;2.10;;;;;;;1.50;100.00;101875.00;5101651;28;20205;-73
2022/10/12 03:25:23;;;;;;;3.37;2.10;;;;;;;1.51;100.00;101872.50;5097386;28;20737;-74
2022/10/12 03:27:49;;;;;;;2.27;1.73;;;;;;;1.47;100.00;101875.78;5098960;28;20704;-72
2022/10/12 03:30:16;;;;;;;5.80;1.83;;;;;;;1.55;100.00;101875.13;5099530;28;20201;-71
2022/10/12 03:32:42;;;;;;;2.63;2.07;;;;;;;1.49;100.00;101868.13;5100595;28;20208;-73
2022/10/12 03:35:09;;;;;;;3.47;2.00;;;;;;;1.47;100.00;101870.63;5104040;28;20632;-74
2022/10/12 03:37:37;;;;;;;2.77;2.07;;;;;;;1.46;100.00;101874.06;5099851;28;20220;-74
2022/10/12 03:40:05;;;;;;;3.43;1.90;;;;;;;1.46;100.00;101865.44;5100919;28;20284;-74
2022/10/12 03:42:31;;;;;;;3.40;1.93;;;;;;;1.45;100.00;101872.28;5099493;28;20201;-73
2022/10/12 03:44:58;;;;;;;5.07;2.33;;;;;;;1.50;100.00;101872.44;5103497;28;20739;-74
2022/10/12 03:47:24;;;;;;;2.80;2.07;;;;;;;1.47;100.00;101870.63;5093900;28;20272;-73
2022/10/12 03:49:50;;;;;;;4.93;2.20;;;;;;;1.48;100.00;101862.13;5099673;28;20198;-73
2022/10/12 03:52:17;;;;;;;3.47;2.20;;;;;;;1.56;100.00;101870.03;5099249;28;20194;-72
2022/10/12 03:54:44;;;;;;;6.80;1.80;;;;;;;1.57;100.00;101866.66;5096792;28;20666;-73
2022/10/12 03:57:11;;;;;;;2.67;2.00;;;;;;;1.35;100.00;101866.81;5099426;28;20703;-73
2022/10/12 03:59:37;;;;;;;2.90;2.00;;;;;;;1.32;100.00;101867.59;5101401;28;20204;-73
2022/10/12 04:02:03;;;;;;;3.10;1.70;;;;;;;1.33;100.00;101870.19;5099694;28;20193;-74
2022/10/12 04:04:31;;;;;;;3.13;1.97;;;;;;;1.38;100.00;101861.78;5090552;28;20569;-73
2022/10/12 04:06:57;;;;;;;2.83;2.20;;;;;;;1.45;100.00;101868.84;5096538;28;20224;-73
2022/10/12 04:09:24;;;;;;;2.83;2.10;;;;;;;1.34;100.00;101876.22;5097538;28;20193;-74
2022/10/12 04:11:51;;;;;;;4.83;3.53;;;;;;;1.35;100.00;101877.09;5099725;28;20541;-73
2022/10/12 04:14:18;;;;;;;5.63;3.57;;;;;;;1.34;100.00;101873.66;5094100;28;20677;-73
2022/10/12 04:16:44;;;;;;;7.70;3.23;;;;;;;1.33;100.00;101875.34;5097376;28;20221;-72
2022/10/12 04:19:12;;;;;;;7.80;3.47;;;;;;;1.37;100.00;101863.44;5089469;28;20217;-72
2022/10/12 04:21:38;;;;;;;6.00;3.10;;;;;;;1.33;100.00;101869.34;5091615;28;20290;-73
2022/10/12 04:24:06;;;;;;;6.57;3.80;;;;;;;1.30;100.00;101875.25;5089502;28;20209;-74
2022/10/12 04:26:32;;;;;;;6.30;3.83;;;;;;;1.26;100.00;101873.41;5091255;28;20476;-74
2022/10/12 04:29:00;;;;;;;9.27;3.83;;;;;;;1.39;100.00;101868.66;5092542;28;20204;-72
2022/10/12 04:31:26;;;;;;;7.23;4.03;;;;;;;1.27;100.00;101871.72;5096114;28;20208;-74
2022/10/12 04:33:55;;;;;;;7.87;3.90;;;;;;;1.32;100.00;101868.47;5096796;28;20212;-72
2022/10/12 04:36:22;;;;;;;6.43;3.87;;;;;;;1.29;100.00;101868.38;5095745;28;20574;-73
2022/10/12 04:38:48;;;;;;;6.27;3.77;;;;;;;1.27;100.00;101867.44;5095669;28;20208;-74
2022/10/12 04:41:14;;;;;;;7.83;4.23;;;;;;;1.20;100.00;101865.50;5097077;28;20736;-74
2022/10/12 04:43:41;;;;;;;6.83;3.80;;;;;;;1.16;100.00;101865.34;5095975;28;20322;-73
2022/10/12 04:46:08;;;;;;;5.17;3.43;;;;;;;1.19;100.00;101865.47;5090885;28;20253;-74
2022/10/12 04:48:35;;;;;;;6.23;2.97;;;;;;;1.21;100.00;101863.81;5093568;28;20235;-74
2022/10/12 04:51:01;;;;;;;5.40;3.80;;;;;;;1.18;100.00;101863.69;5097179;28;21529;-73
2022/10/12 04:53:27;;;;;;;6.10;3.70;;;;;;;1.13;100.00;101868.72;5094154;28;20197;-74
2022/10/12 04:55:54;;;;;;;6.77;3.67;;;;;;;1.14;100.00;101867.88;5096322;28;20716;-72
2022/10/12 04:58:20;;;;;;;6.40;3.50;;;;;;;1.22;100.00;101860.44;5095441;28;20673;-73
2022/10/12 05:00:48;;;;;;;4.20;3.37;;;;;;;1.26;100.00;101860.56;5071637;28;20848;-74
2022/10/12 05:03:15;;;;;;;5.03;3.37;;;;;;;1.13;100.00;101866.13;5086812;28;20204;-73
2022/10/12 05:05:44;;;;;;;6.00;3.73;;;;;;;1.10;100.00;101863.47;5093750;28;20228;-73
2022/10/12 05:08:11;;;;;;;5.50;3.50;;;;;;;1.10;100.00;101869.47;5094117;28;20678;-73
2022/10/12 05:10:38;;;;;;;5.83;3.73;;;;;;;1.16;100.00;101865.34;5088136;28;20208;-73
2022/10/12 05:13:04;;;;;;;4.20;3.17;;;;;;;1.19;100.00;101868.88;5094993;28;20560;-72
2022/10/12 05:15:30;;;;;;;6.63;4.00;;;;;;;0.91;100.00;101865.41;5095157;28;20306;-74
2022/10/12 05:17:57;;;;;;;4.17;3.17;;;;;;;0.71;100.00;101866.47;5095616;28;20205;-73
2022/10/12 05:20:25;;;;;;;3.93;3.07;;;;;;;0.96;100.00;101870.72;5104745;28;20208;-73
2022/10/12 05:22:51;;;;;;;4.93;3.30;;;;;;;0.98;100.00;101875.91;5098380;28;20208;-73
2022/10/12 05:25:18;;;;;;;6.13;2.97;;;;;;;0.96;100.00;101885.25;5097815;28;20224;-73
2022/10/12 05:27:45;;;;;;;4.33;2.77;;;;;;;1.04;100.00;101879.56;5098962;28;20223;-73
2022/10/12 05:30:12;;;;;;;3.57;2.63;;;;;;;1.09;100.00;101879.69;5101860;28;20203;-73
2022/10/12 05:32:38;;;;;;;6.00;2.80;;;;;;;1.07;100.00;101883.91;5101546;28;20193;-74
2022/10/12 05:35:05;;;;;;;3.90;2.73;;;;;;;1.06;100.00;101882.19;5100171;28;20573;-72
2022/10/12 05:37:34;;;;;;;4.10;2.70;;;;;;;1.05;100.00;101886.41;5102861;28;20203;-73
2022/10/12 05:40:00;;;;;;;4.57;2.73;;;;;;;1.15;100.00;101886.75;5096186;28;20225;-74
2022/10/12 05:42:29;;;;;;;4.00;2.70;;;;;;;1.15;100.00;101886.75;5104888;28;20709;-73
2022/10/12 05:44:55;;;;;;;4.37;2.87;;;;;;;1.16;100.00;101888.47;5104415;28;20227;-74
2022/10/12 05:47:22;;;;;;;4.23;2.37;;;;;;;1.06;100.00;101888.19;5096491;28;20213;-74
2022/10/12 05:49:48;;;;;;;4.93;2.80;;;;;;;1.08;100.00;101888.22;5097591;28;20193;-73
2022/10/12 05:52:14;;;;;;;4.50;2.50;;;;;;;1.20;100.00;101895.47;5101130;28;20201;-73
2022/10/12 05:54:42;;;;;;;5.07;2.53;;;;;;;1.20;100.00;101892.91;5104529;28;20617;-74
2022/10/12 05:57:08;;;;;;;3.83;2.20;;;;;;;1.22;100.00;101894.69;5104812;28;20276;-73
2022/10/12 05:59:35;;;;;;;5.13;2.73;;;;;;;1.34;100.00;101896.78;5098078;28;20193;-73
2022/10/12 06:02:01;;;;;;;5.03;3.50;;;;;;;1.22;100.00;101896.41;5081518;28;20216;-72
2022/10/12 06:04:27;;;;;;;4.43;3.20;;;;;;;1.14;100.00;101888.41;5098582;28;20194;-73
2022/10/12 06:06:54;;;;;;;5.63;3.80;;;;;;;1.03;100.00;101889.78;5095194;28;20190;-72
2022/10/12 06:09:20;;;;;;;5.73;3.77;;;;;;;1.09;100.00;101883.16;5097680;28;20206;-74
2022/10/12 06:11:48;;;;;;;6.17;3.60;;;;;;;1.24;100.00;101885.31;5101388;28;20205;-73
2022/10/12 06:14:15;;;;;;;4.37;3.40;;;;;;;1.31;100.00;101891.53;5103689;28;20636;-72
2022/10/12 06:16:41;;;;;;;6.97;4.20;;;;;;;1.39;100.00;101881.50;5087923;28;20306;-73
2022/10/12 06:19:10;;;;;;;6.70;3.37;;;;;;;1.49;100.00;101888.69;5100982;28;20201;-74
2022/10/12 06:21:36;;;;;;;4.93;3.23;;;;;;;1.59;100.00;101897.56;5102289;28;20215;-73
2022/10/12 06:24:03;;;;;;;7.27;3.63;;;;;;;1.62;100.00;101890.81;5100058;28;20197;-74
2022/10/12 06:26:30;;;;;;;10.87;3.57;;;;;;;1.68;100.00;101896.13;5099354;28;20229;-73
2022/10/12 06:28:59;;;;;;;5.87;3.70;;;;;;;1.75;100.00;101897.19;5101834;28;20224;-73
2022/10/12 06:31:25;;;;;;;8.83;4.13;;;;;;;1.79;100.00;101899.03;5100709;28;20198;-73
2022/10/12 06:33:52;;;;;;;8.20;4.67;;;;;;;1.79;100.00;101901.59;5104211;28;20200;-74
2022/10/12 06:36:19;;;;;;;5.20;3.87;;;;;;;1.96;100.00;101901.25;5098917;28;20605;-74
2022/10/12 06:38:45;;;;;;;8.53;4.37;;;;;;;2.10;100.00;101909.38;5098073;28;20776;-73
2022/10/12 06:41:12;;;;;;;6.77;4.30;;;;;;;2.28;100.00;101907.31;5102613;28;20724;-73
2022/10/12 06:43:38;;;;;;;8.63;5.13;;;;;;;2.30;100.00;101904.78;5099385;28;20403;-74
2022/10/12 06:46:06;;;;;;;7.20;4.10;;;;;;;2.37;100.00;101907.56;5102654;28;20685;-73
2022/10/12 06:48:32;;;;;;;8.47;4.77;;;;;;;2.53;100.00;101906.28;5097842;28;20212;-73
2022/10/12 06:50:59;;;;;;;8.10;4.60;;;;;;;2.56;100.00;101906.38;5099306;28;20209;-74
2022/10/12 06:53:27;;;;;;;7.00;4.47;;;;;;;2.71;100.00;101910.19;5100861;28;20197;-72
2022/10/12 06:55:53;;;;;;;5.67;4.33;;;;;;;2.85;100.00;101914.03;5101276;28;20213;-74
2022/10/12 06:58:20;;;;;;;9.97;4.53;;;;;;;2.94;100.00;101913.41;5104207;28;20649;-72
2022/10/12 07:00:46;;;;;;;6.77;4.90;;;;;;;3.02;100.00;101919.59;5099624;28;20215;-73
2022/10/12 07:03:15;;;;;;;8.93;5.00;;;;;;;3.11;100.00;101924.13;5083834;28;20269;-73
2022/10/12 07:05:41;;;;;;;7.43;4.47;;;;;;;3.14;100.00;101919.06;5098623;28;20221;-73
2022/10/12 07:08:08;;;;;;;9.00;4.73;;;;;;;3.14;100.00;101919.91;5098903;28;20274;-74
2022/10/12 07:10:34;;;;;;;9.07;5.17;;;;;;;3.19;100.00;101926.06;5101243;28;20217;-74
2022/10/12 07:13:00;;;;;;;10.30;5.23;;;;;;;3.34;100.00;101929.84;5101402;28;20205;-74
2022/10/12 07:15:27;;;;;;;10.43;4.70;;;;;;;3.45;100.00;101928.41;5099584;28;20689;-74
2022/10/12 07:17:53;;;;;;;10.07;5.40;;;;;;;3.55;100.00;101932.97;5101190;28;20204;-74
2022/10/12 07:20:21;;;;;;;8.27;5.50;;;;;;;3.67;100.00;101923.75;5105870;28;20595;-74
2022/10/12 07:22:47;;;;;;;10.60;5.30;;;;;;;3.72;100.00;101924.75;5102438;28;20198;-74
2022/10/12 07:25:14;;;;;;;11.70;6.23;;;;;;;3.86;100.00;101920.75;5099266;28;20213;-73
2022/10/12 07:27:40;;;;;;;9.63;5.77;;;;;;;4.00;100.00;101922.78;5100439;28;20205;-74
2022/10/12 07:30:08;;;;;;;9.60;5.33;;;;;;;4.07;100.00;101919.50;5099020;28;20394;-74
2022/10/12 07:32:34;;;;;;;11.23;5.93;;;;;;;4.20;100.00;101923.19;5104165;28;20201;-73
2022/10/12 07:35:00;;;;;;;11.83;6.90;;;;;;;4.23;100.00;101926.69;5088622;28;20229;-73
2022/10/12 07:37:28;;;;;;;16.80;6.47;;;;;;;4.24;100.00;101922.41;5098328;28;20197;-74
2022/10/12 07:39:56;;;;;;;10.27;6.43;;;;;;;4.33;100.00;101926.06;5098362;28;20680;-74
2022/10/12 07:42:22;;;;;;;16.73;8.30;;;;;;;4.42;100.00;101919.34;5097963;28;20224;-74
2022/10/12 07:44:49;;;;;;;17.70;8.83;;;;;;;4.57;100.00;101929.94;5095708;28;20229;-74
2022/10/12 07:47:16;;;;;;;11.10;5.57;;;;;;;4.78;100.00;101926.91;5101305;28;20253;-74
2022/10/12 07:49:43;;;;;;;13.00;6.13;;;;;;;5.00;100.00;101932.50;5097657;28;20214;-74
2022/10/12 07:52:09;;;;;;;9.97;5.23;;;;;;;5.15;100.00;101924.13;5098100;28;20276;-73
2022/10/12 07:54:37;;;;;;;11.50;5.30;;;;;;;5.33;100.00;101924.44;5091005;28;20190;-74
2022/10/12 07:57:03;;;;;;;13.23;5.90;;;;;;;5.52;100.00;101928.16;5099450;28;20197;-72
2022/10/12 07:59:30;;;;;;;11.40;5.03;;;;;;;5.76;100.00;101927.66;5096450;28;20204;-74
2022/10/12 08:01:56;;;;;;;12.90;5.00;;;;;;;5.86;100.00;101924.38;5097138;28;20208;-74
2022/10/12 08:04:22;;;;;;;9.10;4.90;;;;;;;5.92;100.00;101923.56;5100856;28;20221;-74
2022/10/12 08:06:49;;;;;;;10.47;5.23;;;;;;;6.04;100.00;101925.50;5097725;27;20230;-74
2022/10/12 08:09:15;;;;;;;9.40;4.90;;;;;;;6.15;100.00;101923.91;5102646;28;20609;-74
2022/10/12 08:11:43;;;;;;;8.90;4.50;;;;;;;6.31;100.00;101916.34;5098548;28;20695;-73
2022/10/12 08:14:13;;;;;;;9.90;4.83;;;;;;;6.44;100.00;101915.66;5098722;28;20197;-74
2022/10/12 08:16:41;;;;;;;9.03;5.27;;;;;;;6.56;100.00;101918.38;5099060;28;20221;-74
2022/10/12 08:19:07;;;;;;;11.27;4.33;;;;;;;6.63;100.00;101907.22;5094424;28;20201;-74
2022/10/12 08:21:34;;;;;;;20.20;5.97;;;;;;;6.77;100.00;101906.47;5094492;28;20554;-74
2022/10/12 08:24:00;;;;;;;10.47;4.60;;;;;;;6.92;100.00;101906.63;5102264;28;20204;-75
2022/10/12 08:26:28;;;;;;;7.13;4.23;;;;;;;7.01;100.00;101900.66;5099219;28;20221;-74
2022/10/12 08:28:55;;;;;;;10.70;4.83;;;;;;;7.14;100.00;101906.81;5094362;28;20217;-74
2022/10/12 08:31:22;;;;;;;10.87;4.80;;;;;;;7.20;100.00;101897.38;5096585;28;20223;-71
2022/10/12 08:33:48;;;;;;;8.83;4.30;;;;;;;7.30;100.00;101897.44;5099078;28;20185;-74
2022/10/12 08:36:14;;;;;;;11.30;4.10;;;;;;;7.43;100.00;101888.03;5101356;22;20241;-69
2022/10/12 08:38:42;;;;;;;6.67;4.47;;;;;;;7.59;100.00;101892.47;5082769;28;20194;-69
2022/10/12 08:41:26;;;;;;;9.17;4.60;;;;;;;7.73;100.00;101890.81;5058840;28;20690;-71
2022/10/12 08:44:07;;;;;;;12.90;4.50;;;;;;;7.93;100.00;101884.84;5076462;28;20210;-71
2022/10/12 08:46:34;;;;;;;19.33;4.40;;;;;;;8.07;100.00;101887.53;5071455;28;20215;-71
2022/10/12 08:49:04;;;;;;;13.70;5.10;;;;;;;8.15;100.00;101883.22;5077508;28;20584;-71
2022/10/12 08:51:32;;;;;;;9.37;4.77;;;;;;;8.25;100.00;101878.91;5076604;28;20202;-70
2022/10/12 08:54:03;;;;;;;9.93;4.87;;;;;;;8.42;100.00;101885.06;5079404;28;20302;-71
2022/10/12 08:56:29;;;;;;;10.27;4.23;;;;;;;8.58;100.00;101879.91;5072676;28;20222;-70
2022/10/12 08:58:57;;;;;;;10.63;3.60;;;;;;;8.74;100.00;101878.22;5075920;28;20218;-71
2022/10/12 09:01:29;;;;;;;13.83;3.57;;;;;;;8.86;100.00;101880.84;5079326;28;20206;-71
2022/10/12 09:04:14;;;;;;;7.60;3.37;;;;;;;8.96;100.00;101884.31;5083003;28;20625;-71
2022/10/12 09:06:46;;;;;;;10.93;4.20;;;;;;;9.06;100.00;101888.66;5078583;28;20570;-71
2022/10/12 09:09:32;;;;;;;6.30;3.50;;;;;;;9.28;100.00;101884.31;5073748;28;20592;-70
2022/10/12 09:12:11;;;;;;;10.87;3.30;;;;;;;9.31;100.00;101878.25;5072624;28;20202;-71
2022/10/12 09:14:40;;;;;;;11.17;3.33;;;;;;;9.43;100.00;101878.25;5078676;28;20197;-70
2022/10/12 09:17:22;;;;;;;6.70;2.97;;;;;;;9.48;100.00;101885.16;5073987;28;20284;-71
2022/10/12 09:19:59;;;;;;;9.23;3.30;;;;;;;9.55;100.00;101886.03;5077030;28;20225;-71
2022/10/12 09:22:28;;;;;;;6.67;2.67;;;;;;;9.65;100.00;101890.31;5078594;28;20692;-71
2022/10/12 09:24:57;;;;;;;4.27;2.43;;;;;;;9.74;100.00;101891.19;5078238;28;20552;-71
2022/10/12 09:27:23;;;;;;;4.20;2.37;;;;;;;9.88;100.00;101885.94;5068165;28;20233;-71
2022/10/12 09:29:56;;;;;;;4.70;2.23;;;;;;;10.07;100.00;101895.44;5069400;28;20207;-71
2022/10/12 09:32:36;;;;;;;5.87;2.00;;;;;;;10.13;100.00;101895.41;5068692;28;20678;-70
2022/10/12 09:35:06;;;;;;;7.77;1.90;;;;;;;10.30;100.00;101897.94;5075120;28;20206;-70
2022/10/12 09:37:35;;;;;;;4.07;1.77;;;;;;;10.45;100.00;101891.81;5078548;28;20203;-71
2022/10/12 09:40:02;;;;;;;7.27;1.70;;;;;;;10.51;100.00;101890.91;5075242;28;20569;-71
2022/10/12 09:42:28;;;;;;;5.93;2.00;;;;;;;10.56;100.00;101881.31;5082464;28;20204;-71
2022/10/12 09:45:02;;;;;;;4.20;1.80;;;;;;;10.65;100.00;101885.63;5080020;28;20203;-71
2022/10/12 09:47:30;;;;;;;7.43;2.83;;;;;;;11.03;100.00;101892.28;5078189;28;20569;-71
2022/10/12 09:49:58;;;;;;;8.07;2.23;;;;;;;11.13;100.00;101893.94;5074474;28;20687;-70
2022/10/12 09:52:29;;;;;;;5.83;2.20;;;;;;;11.24;100.00;101896.47;5078753;28;20201;-71
2022/10/12 09:54:59;;;;;;;2.90;2.00;;;;;;;11.41;100.00;101891.97;5080059;28;20590;-71
2022/10/12 09:57:29;;;;;;;7.40;3.07;;;;;;;11.50;100.00;101898.84;5079763;28;20207;-72
2022/10/12 09:59:57;;;;;;;6.87;3.93;;;;;;;11.65;100.00;101895.22;5074290;28;20571;-71
2022/10/12 10:02:25;;;;;;;8.63;3.40;;;;;;;11.71;100.00;101892.53;5081500;28;20459;-70
2022/10/12 10:04:53;;;;;;;4.27;2.60;;;;;;;11.73;100.00;101896.88;5061618;28;20208;-71
2022/10/12 10:07:24;;;;;;;3.77;1.90;;;;;;;11.74;100.00;101892.50;5086717;28;20582;-71
2022/10/12 10:10:06;;;;;;;2.50;1.50;;;;;;;11.82;100.00;101898.53;5084100;28;20631;-70
2022/10/12 10:12:36;;;;;;;3.13;1.60;;;;;;;11.91;100.00;101887.13;5081374;28;20193;-71
2022/10/12 10:15:05;;;;;;;2.00;1.30;;;;;;;11.96;100.00;101887.94;5062110;28;20352;-70
2022/10/12 10:17:33;;;;;;;3.33;1.67;;;;;;;11.98;100.00;101880.06;5076849;28;20216;-70
2022/10/12 10:20:04;;;;;;;1.93;1.40;;;;;;;11.95;100.00;101875.75;5081692;28;20203;-71
2022/10/12 10:22:31;;;;;;;5.07;1.53;;;;;;;11.98;100.00;101886.19;5065746;28;20311;-71
2022/10/12 10:24:59;;;;;;;4.37;1.93;;;;;;;12.21;100.00;101878.03;5079669;28;20235;-71
2022/10/12 10:27:32;;;;;;;2.67;2.10;;;;;;;12.25;100.00;101881.50;5082713;28;20328;-71
2022/10/12 10:30:22;;;;;;;3.00;1.60;;;;;;;12.30;100.00;101882.28;5075193;28;20229;-71
2022/10/12 10:33:06;;;;;;;3.80;1.60;;;;;;;12.25;100.00;101881.50;5064436;28;20264;-70
2022/10/12 10:35:32;;;;;;;5.40;1.53;;;;;;;12.38;100.00;101885.66;5080614;28;20244;-71
2022/10/12 10:37:59;;;;;;;4.80;1.40;;;;;;;12.41;100.00;101882.16;5098912;28;20293;-71
2022/10/12 10:40:27;;;;;;;2.57;1.77;;;;;;;12.53;100.00;101881.97;5100717;28;20727;-71
2022/10/12 10:42:56;;;;;;;4.80;1.60;;;;;;;12.52;100.00;101877.63;5101921;28;20192;-71
2022/10/12 10:45:27;;;;;;;4.53;1.20;;;;;;;12.55;100.00;101881.94;5103803;28;20216;-70
2022/10/12 10:48:00;;;;;;;3.63;0.83;;;;;;;12.58;100.00;101888.00;5096248;28;20198;-71
2022/10/12 10:50:32;;;;;;;4.23;1.00;;;;;;;12.64;100.00;101882.66;5104476;28;20220;-70
2022/10/12 10:53:02;;;;;;;4.67;1.37;;;;;;;12.74;100.00;101869.47;5098987;28;20209;-70
2022/10/12 10:55:39;;;;;;;2.80;1.00;;;;;;;12.74;100.00;101877.31;5101440;28;20299;-71
2022/10/12 10:58:20;;;;;;;4.67;1.13;;;;;;;12.81;100.00;101873.72;5098425;27;20208;-71
2022/10/12 11:00:50;;;;;;;2.40;0.93;;;;;;;12.87;97.37;101879.72;5094617;28;20193;-71
2022/10/12 11:03:22;;;;;;;1.27;1.10;;;;;;;12.79;100.00;101860.66;5083405;28;20197;-71
2022/10/12 11:05:55;;;;;;;2.83;1.10;;;;;;;12.85;94.16;101865.78;5096186;28;20221;-71
2022/10/12 11:08:25;;;;;;;4.13;1.13;;;;;;;12.89;98.23;101858.75;5099886;28;20197;-70
2022/10/12 11:10:55;;;;;;;2.80;0.80;;;;;;;12.90;93.10;101863.09;5090913;28;20216;-70
2022/10/12 11:13:25;;;;;;;1.60;0.97;;;;;;;12.93;91.29;101855.19;5088682;28;20196;-71
2022/10/12 11:15:56;;;;;;;6.13;1.63;;;;;;;12.92;94.15;101853.47;5090960;28;20221;-70
2022/10/12 11:18:30;;;;;;;2.53;0.90;;;;;;;13.00;87.60;101848.13;5096857;28;20225;-71
2022/10/12 11:21:01;;;;;;;3.43;1.30;;;;;;;13.02;85.40;101852.44;5099289;28;20620;-70
2022/10/12 11:23:34;;;;;;;3.13;1.23;;;;;;;13.06;89.18;101848.84;5092239;28;20232;-70
2022/10/12 11:26:10;;;;;;;4.53;1.23;;;;;;;13.03;93.02;101843.69;5090986;28;20217;-69
2022/10/12 11:28:37;;;;;;;0.63;0.60;;;;;;;13.18;93.61;101831.22;5096897;28;20193;-71
2022/10/12 11:31:12;;;;;;;4.33;1.00;;;;;;;13.22;95.18;101833.72;5100105;28;20223;-71
2022/10/12 11:33:41;;;;;;;3.37;1.33;;;;;;;13.35;86.55;101842.28;5098359;28;20650;-70